Time;durP1;ratioP1;P1;durP2;ratioP2;P2;SDS_P1;SDS_P2;PMS_P1;PMS_P2;Temp;Humidity;BMP_temperature;BMP_pressure;BME280_temperature;BME280_humidity;BME280_pressure;Samples;Min_cycle;Max_cycle;Signal;HPM_P1;HPM_P2
2023/04/26 00:00:00;;;;;;;4.00;2.30;;;3.80;99.90;;;;;;5033179;28;20703;-64
2023/04/26 00:02:27;;;;;;;3.10;2.45;;;3.80;99.90;;;;;;5033108;28;20332;-64
2023/04/26 00:04:57;;;;;;;5.75;2.40;;;3.80;99.90;;;;;;5033233;28;20208;-64
2023/04/26 00:07:24;;;;;;;4.95;2.15;;;3.80;99.90;;;;;;5033435;28;20198;-65
2023/04/26 00:09:52;;;;;;;6.55;3.05;;;3.80;99.90;;;;;;5032785;28;20250;-64
2023/04/26 00:12:19;;;;;;;8.02;2.45;;;3.70;99.90;;;;;;5033046;28;20219;-64
2023/04/26 00:14:45;;;;;;;12.88;2.80;;;3.70;99.90;;;;;;5033235;28;20202;-64
2023/04/26 00:17:12;;;;;;;5.65;2.03;;;3.70;99.90;;;;;;5032712;28;20225;-63
2023/04/26 00:19:39;;;;;;;4.10;2.00;;;3.70;99.90;;;;;;5032884;28;20202;-64
2023/04/26 00:22:08;;;;;;;12.35;2.30;;;3.70;99.90;;;;;;5033562;28;20234;-63
2023/04/26 00:24:35;;;;;;;3.28;2.42;;;3.70;99.90;;;;;;5032936;28;20202;-65
2023/04/26 00:27:07;;;;;;;6.60;2.78;;;3.70;99.90;;;;;;5034397;28;20209;-65
2023/04/26 00:29:34;;;;;;;7.38;2.40;;;3.60;99.90;;;;;;5036904;28;20208;-64
2023/04/26 00:32:01;;;;;;;7.22;2.28;;;3.60;99.90;;;;;;5036958;28;20222;-64
2023/04/26 00:34:32;;;;;;;6.40;2.30;;;3.60;99.90;;;;;;5037039;28;20202;-64
2023/04/26 00:36:59;;;;;;;10.55;3.50;;;3.60;99.90;;;;;;5036791;28;20253;-64
2023/04/26 00:39:27;;;;;;;2.92;2.25;;;3.60;99.90;;;;;;5036763;28;20210;-65
2023/04/26 00:41:54;;;;;;;5.88;2.97;;;3.60;99.90;;;;;;5036577;28;20237;-65
2023/04/26 00:44:20;;;;;;;4.53;2.17;;;3.50;99.90;;;;;;5036601;28;20203;-65
2023/04/26 00:46:48;;;;;;;4.95;1.83;;;3.50;99.90;;;;;;5036513;28;20202;-64
2023/04/26 00:49:16;;;;;;;2.63;2.10;;;3.50;99.90;;;;;;5036469;28;20213;-63
2023/04/26 00:51:43;;;;;;;8.35;2.88;;;3.50;99.90;;;;;;5036326;28;20229;-63
2023/04/26 00:54:11;;;;;;;6.15;2.45;;;3.40;99.90;;;;;;5036290;28;20206;-64
2023/04/26 00:56:40;;;;;;;4.25;2.15;;;3.40;99.90;;;;;;5036813;28;20229;-64
2023/04/26 00:59:07;;;;;;;10.50;2.45;;;3.40;99.90;;;;;;5037018;28;20229;-62
2023/04/26 01:01:34;;;;;;;4.78;2.85;;;3.40;99.90;;;;;;5036807;28;20317;-63
2023/04/26 01:04:01;;;;;;;4.15;2.40;;;3.40;99.90;;;;;;5037060;28;20580;-64
2023/04/26 01:06:32;;;;;;;11.57;2.58;;;3.40;99.90;;;;;;5037285;28;20198;-63
2023/04/26 01:09:00;;;;;;;5.13;2.00;;;3.40;99.90;;;;;;5037116;28;20269;-64
2023/04/26 01:11:27;;;;;;;5.65;2.40;;;3.40;99.90;;;;;;5036652;28;20226;-64
2023/04/26 01:13:57;;;;;;;5.95;2.45;;;3.40;99.90;;;;;;5036152;28;20285;-63
2023/04/26 01:16:24;;;;;;;6.07;2.78;;;3.30;99.90;;;;;;5042333;28;20225;-64
2023/04/26 01:18:51;;;;;;;6.55;2.45;;;3.40;99.90;;;;;;5042305;28;20202;-64
2023/04/26 01:21:20;;;;;;;8.90;2.28;;;3.30;99.90;;;;;;5044413;28;20222;-65
2023/04/26 01:23:48;;;;;;;12.68;2.80;;;3.40;99.90;;;;;;5038619;28;20206;-64
2023/04/26 01:26:15;;;;;;;3.78;2.15;;;3.30;99.90;;;;;;5036246;28;20204;-64
2023/04/26 01:28:42;;;;;;;6.07;2.53;;;3.30;99.90;;;;;;5035940;28;20203;-64
2023/04/26 01:31:09;;;;;;;7.00;2.83;;;3.30;99.90;;;;;;5035725;28;20213;-64
2023/04/26 01:33:36;;;;;;;3.97;2.30;;;3.30;99.90;;;;;;5035649;28;20202;-64
2023/04/26 01:36:03;;;;;;;6.13;3.15;;;3.30;99.90;;;;;;5035353;28;20202;-64
2023/04/26 01:38:29;;;;;;;4.05;2.50;;;3.30;99.90;;;;;;5034705;28;20210;-63
2023/04/26 01:40:57;;;;;;;10.43;2.58;;;3.30;99.90;;;;;;5037010;28;20296;-64
2023/04/26 01:43:24;;;;;;;6.20;2.08;;;3.30;99.90;;;;;;5038856;28;20206;-64
2023/04/26 01:45:51;;;;;;;5.22;2.25;;;3.30;99.90;;;;;;5036781;28;20209;-64
2023/04/26 01:48:17;;;;;;;3.35;2.28;;;3.30;99.90;;;;;;5036139;28;20515;-64
2023/04/26 01:50:44;;;;;;;8.43;2.50;;;3.30;99.90;;;;;;5035498;28;20202;-62
2023/04/26 01:53:11;;;;;;;5.80;2.60;;;3.20;99.90;;;;;;5035411;28;20218;-64
2023/04/26 01:55:38;;;;;;;6.65;2.10;;;3.20;99.90;;;;;;5035329;28;20209;-64
2023/04/26 01:58:06;;;;;;;9.30;2.88;;;3.20;99.90;;;;;;5035134;28;20222;-63
2023/04/26 02:00:33;;;;;;;6.03;2.85;;;3.20;99.90;;;;;;5035317;28;20387;-64
2023/04/26 02:03:00;;;;;;;4.70;3.05;;;3.20;99.90;;;;;;5035170;28;20222;-63
2023/04/26 02:05:26;;;;;;;4.43;2.40;;;3.20;99.90;;;;;;5035102;28;20203;-63
2023/04/26 02:07:53;;;;;;;6.63;2.40;;;3.10;99.90;;;;;;5034682;28;20688;-64
2023/04/26 02:10:20;;;;;;;8.85;2.70;;;3.10;99.90;;;;;;5035029;28;20202;-64
2023/04/26 02:12:46;;;;;;;3.38;2.00;;;3.10;99.90;;;;;;5034813;28;20222;-64
2023/04/26 02:15:15;;;;;;;5.15;2.42;;;3.10;99.90;;;;;;5034716;28;20229;-64
2023/04/26 02:17:42;;;;;;;2.55;2.15;;;3.10;99.90;;;;;;5034564;28;20222;-64
2023/04/26 02:20:10;;;;;;;6.53;3.03;;;3.00;99.90;;;;;;5034427;28;20668;-64
2023/04/26 02:22:37;;;;;;;11.57;2.30;;;3.00;99.90;;;;;;5034219;28;20230;-65
2023/04/26 02:25:04;;;;;;;5.72;2.40;;;3.00;99.90;;;;;;5034539;28;20206;-64
2023/04/26 02:27:31;;;;;;;3.30;2.80;;;3.00;99.90;;;;;;5034671;28;20198;-65
2023/04/26 02:29:58;;;;;;;5.85;2.40;;;3.00;99.90;;;;;;5034721;28;20209;-65
2023/04/26 02:32:26;;;;;;;10.38;2.85;;;2.90;99.90;;;;;;5034316;28;20234;-65
2023/04/26 02:34:53;;;;;;;7.20;2.83;;;2.90;99.90;;;;;;5034532;28;20225;-64
2023/04/26 02:37:20;;;;;;;12.15;3.13;;;2.90;99.90;;;;;;5034151;28;20664;-65
2023/04/26 02:39:50;;;;;;;5.50;2.55;;;2.90;99.90;;;;;;5034361;28;20210;-64
2023/04/26 02:42:17;;;;;;;5.90;2.80;;;2.90;99.90;;;;;;5034149;28;20269;-65
2023/04/26 02:44:44;;;;;;;3.97;2.50;;;2.90;99.90;;;;;;5034116;28;20282;-63
2023/04/26 02:47:11;;;;;;;5.15;3.10;;;2.90;99.90;;;;;;5034132;28;20198;-64
2023/04/26 02:49:39;;;;;;;6.88;3.25;;;2.90;99.90;;;;;;5033248;28;20699;-64
2023/04/26 02:52:06;;;;;;;3.65;2.83;;;2.80;99.90;;;;;;5033527;28;20218;-64
2023/04/26 02:54:32;;;;;;;16.80;3.90;;;2.80;99.90;;;;;;5034099;28;20206;-65
2023/04/26 02:56:59;;;;;;;5.53;2.25;;;2.80;99.90;;;;;;5034345;28;20245;-64
2023/04/26 02:59:26;;;;;;;5.50;2.13;;;2.80;99.90;;;;;;5036405;28;20595;-64
2023/04/26 03:01:53;;;;;;;5.03;2.80;;;2.80;99.90;;;;;;5036589;28;20597;-64
2023/04/26 03:04:20;;;;;;;6.25;2.70;;;2.80;99.90;;;;;;5035831;28;20202;-64
2023/04/26 03:06:48;;;;;;;6.55;3.10;;;2.80;99.90;;;;;;5036517;28;20226;-64
2023/04/26 03:09:14;;;;;;;6.18;2.65;;;2.80;99.90;;;;;;5034623;28;20209;-64
2023/04/26 03:11:41;;;;;;;3.97;2.10;;;2.70;99.90;;;;;;5035155;28;20313;-63
2023/04/26 03:14:08;;;;;;;6.57;2.80;;;2.70;99.90;;;;;;5034412;28;20210;-64
2023/04/26 03:16:41;;;;;;;6.75;3.40;;;2.70;99.90;;;;;;5034598;28;20206;-64
2023/04/26 03:19:08;;;;;;;7.45;3.75;;;2.70;99.90;;;;;;5034007;28;20195;-64
2023/04/26 03:21:35;;;;;;;4.68;2.65;;;2.70;99.90;;;;;;5033361;28;20238;-64
2023/04/26 03:24:03;;;;;;;3.55;2.58;;;2.70;99.90;;;;;;5033666;28;20191;-64
2023/04/26 03:26:29;;;;;;;10.07;2.78;;;2.60;99.90;;;;;;5033380;28;20230;-64
2023/04/26 03:28:56;;;;;;;7.35;2.58;;;2.60;99.90;;;;;;5033394;28;20205;-65
2023/04/26 03:31:23;;;;;;;13.65;3.30;;;2.60;99.90;;;;;;5032932;28;20226;-65
2023/04/26 03:33:50;;;;;;;8.60;3.05;;;2.60;99.90;;;;;;5033172;28;20237;-65
2023/04/26 03:36:18;;;;;;;3.95;2.70;;;2.60;99.90;;;;;;5033324;28;20246;-64
2023/04/26 03:38:44;;;;;;;4.07;2.30;;;2.60;99.90;;;;;;5032847;28;20226;-65
2023/04/26 03:41:13;;;;;;;8.18;3.47;;;2.60;99.90;;;;;;5032848;28;20237;-65
2023/04/26 03:43:39;;;;;;;9.48;3.15;;;2.60;99.90;;;;;;5033041;28;20206;-65
2023/04/26 03:46:06;;;;;;;6.72;3.80;;;2.60;99.90;;;;;;5033092;28;20594;-64
2023/04/26 03:48:33;;;;;;;7.35;2.85;;;2.60;99.90;;;;;;5033065;28;20281;-65
2023/04/26 03:51:00;;;;;;;9.88;3.35;;;2.60;99.90;;;;;;5032951;28;20206;-64
2023/04/26 03:53:26;;;;;;;7.05;3.60;;;2.50;99.90;;;;;;5032676;28;20676;-64
2023/04/26 03:55:53;;;;;;;10.60;3.50;;;2.60;99.90;;;;;;5032576;28;20213;-63
2023/04/26 03:58:21;;;;;;;11.93;3.28;;;2.60;99.90;;;;;;5032847;28;20214;-63
2023/04/26 04:00:48;;;;;;;11.88;3.40;;;2.60;99.90;;;;;;5032554;28;20625;-62
2023/04/26 04:03:15;;;;;;;5.85;3.30;;;2.60;99.90;;;;;;5032548;28;20227;-63
2023/04/26 04:05:41;;;;;;;7.43;3.33;;;2.60;99.90;;;;;;5032536;28;20202;-64
2023/04/26 04:11:36;;;;;;;5.10;2.83;;;2.60;99.90;;;;;;5131683;27;21083;-64
2023/04/26 04:14:03;;;;;;;6.85;3.20;;;2.70;99.90;;;;;;5131517;28;20205;-65
2023/04/26 04:16:30;;;;;;;9.82;3.10;;;2.70;99.90;;;;;;5131748;28;20198;-65
2023/04/26 04:18:57;;;;;;;6.22;3.30;;;2.70;99.90;;;;;;5131108;28;20244;-64
2023/04/26 04:21:23;;;;;;;9.45;3.95;;;2.80;99.90;;;;;;5131120;27;20588;-66
2023/04/26 04:23:50;;;;;;;8.88;3.40;;;2.80;99.90;;;;;;5130657;28;20214;-65
2023/04/26 04:26:18;;;;;;;8.63;3.08;;;2.80;99.90;;;;;;5131028;28;20205;-67
2023/04/26 04:28:46;;;;;;;6.15;3.13;;;2.90;99.90;;;;;;5131483;28;20226;-65
2023/04/26 04:31:12;;;;;;;6.45;3.42;;;2.90;99.90;;;;;;5130906;27;20234;-65
2023/04/26 04:33:39;;;;;;;9.55;3.22;;;3.00;99.90;;;;;;5130771;28;20676;-64
2023/04/26 04:36:07;;;;;;;7.07;2.88;;;3.10;99.90;;;;;;5131007;28;20195;-65
2023/04/26 04:38:34;;;;;;;9.98;3.50;;;3.20;99.90;;;;;;5130999;27;20199;-65
2023/04/26 04:41:01;;;;;;;6.15;3.10;;;3.30;99.90;;;;;;5130616;27;20199;-65
2023/04/26 04:43:28;;;;;;;8.95;2.83;;;3.50;99.90;;;;;;5130617;28;20230;-65
2023/04/26 04:45:57;;;;;;;6.82;2.90;;;3.70;99.90;;;;;;5130176;28;20203;-65
2023/04/26 04:48:24;;;;;;;11.00;3.28;;;3.80;99.90;;;;;;5130743;27;20249;-65
2023/04/26 04:50:51;;;;;;;5.35;3.60;;;3.90;99.90;;;;;;5130368;28;20563;-66
2023/04/26 04:53:18;;;;;;;4.80;3.00;;;3.90;99.90;;;;;;5130249;27;20772;-65
2023/04/26 04:55:45;;;;;;;9.15;3.40;;;3.90;99.90;;;;;;5130450;28;20267;-65
2023/04/26 04:58:13;;;;;;;5.47;2.65;;;3.90;99.90;;;;;;5130369;28;20214;-65
2023/04/26 05:00:40;;;;;;;7.13;3.22;;;3.80;99.90;;;;;;5130186;27;20311;-66
2023/04/26 05:03:08;;;;;;;10.23;3.53;;;3.80;99.90;;;;;;5130878;27;20219;-67
2023/04/26 05:05:35;;;;;;;6.80;2.70;;;3.80;99.90;;;;;;5137047;27;20285;-64
2023/04/26 05:08:02;;;;;;;7.72;3.33;;;3.80;99.90;;;;;;5133888;28;20210;-66
2023/04/26 05:10:28;;;;;;;9.85;3.25;;;3.80;99.90;;;;;;5131102;28;20305;-65
2023/04/26 05:12:55;;;;;;;4.38;3.03;;;3.80;99.90;;;;;;5130367;27;20226;-66
2023/04/26 05:15:22;;;;;;;8.38;3.35;;;3.80;99.90;;;;;;5132308;28;20238;-65
2023/04/26 05:17:49;;;;;;;6.03;3.05;;;3.80;99.90;;;;;;5130824;28;20195;-66
2023/04/26 05:20:17;;;;;;;4.55;2.63;;;3.80;99.90;;;;;;5129611;28;20567;-65
2023/04/26 05:22:44;;;;;;;6.05;2.70;;;3.80;99.90;;;;;;5117612;28;20223;-65
2023/04/26 05:25:12;;;;;;;6.78;3.58;;;3.80;99.90;;;;;;5116798;28;20661;-65
2023/04/26 05:27:39;;;;;;;13.18;4.15;;;3.80;99.90;;;;;;5116451;28;20230;-66
2023/04/26 05:30:08;;;;;;;8.73;3.35;;;3.90;99.90;;;;;;5116943;28;20211;-66
2023/04/26 05:32:34;;;;;;;9.18;3.22;;;4.00;99.90;;;;;;5116375;27;20323;-66
2023/04/26 05:35:01;;;;;;;4.95;2.88;;;4.10;99.90;;;;;;5117097;28;20258;-65
2023/04/26 05:37:30;;;;;;;6.25;3.60;;;4.10;99.90;;;;;;5116394;28;20210;-66
2023/04/26 05:39:57;;;;;;;3.25;2.30;;;4.20;99.90;;;;;;5116415;28;20238;-66
2023/04/26 05:42:24;;;;;;;5.43;3.05;;;4.30;99.90;;;;;;5116280;28;20294;-66
2023/04/26 05:44:51;;;;;;;9.50;3.15;;;4.30;99.90;;;;;;5116853;28;20696;-66
2023/04/26 05:47:17;;;;;;;13.15;3.72;;;4.40;99.90;;;;;;5116497;28;20369;-66
2023/04/26 05:49:44;;;;;;;6.50;3.95;;;4.50;99.90;;;;;;5115992;28;20208;-65
2023/04/26 05:52:11;;;;;;;5.97;3.47;;;4.50;99.90;;;;;;5116938;28;20590;-66
2023/04/26 05:54:39;;;;;;;6.65;3.75;;;4.50;99.90;;;;;;5116239;28;20200;-66
2023/04/26 05:57:06;;;;;;;6.93;3.20;;;4.60;99.90;;;;;;5116250;28;20196;-66
2023/04/26 05:59:36;;;;;;;11.27;4.70;;;4.60;99.90;;;;;;5115492;28;20665;-66
2023/04/26 06:02:03;;;;;;;8.15;3.40;;;4.70;99.90;;;;;;5115747;28;20216;-66
2023/04/26 06:04:31;;;;;;;6.85;3.25;;;4.80;99.90;;;;;;5116152;28;20203;-66
2023/04/26 06:06:57;;;;;;;8.15;3.03;;;4.90;99.90;;;;;;5116119;28;20397;-66
2023/04/26 06:09:25;;;;;;;3.72;2.95;;;4.90;99.90;;;;;;5116344;28;20632;-65
2023/04/26 06:11:53;;;;;;;5.05;3.10;;;5.00;99.90;;;;;;5115702;28;20223;-65
2023/04/26 06:14:19;;;;;;;9.02;3.35;;;5.00;99.90;;;;;;5116397;28;20206;-66
2023/04/26 06:16:46;;;;;;;3.60;3.13;;;5.10;99.90;;;;;;5115667;28;20700;-67
2023/04/26 06:19:13;;;;;;;9.90;2.92;;;5.20;99.90;;;;;;5116093;28;20236;-66
2023/04/26 06:21:40;;;;;;;8.88;3.30;;;5.20;99.90;;;;;;5116648;28;20239;-66
2023/04/26 06:24:07;;;;;;;3.88;2.90;;;5.40;99.90;;;;;;5123284;28;20200;-66
2023/04/26 06:26:34;;;;;;;5.18;2.90;;;5.50;99.90;;;;;;5125013;28;20199;-65
2023/04/26 06:29:02;;;;;;;6.40;2.50;;;5.70;99.90;;;;;;5123550;28;20200;-66
2023/04/26 06:31:28;;;;;;;9.18;3.42;;;5.80;99.90;;;;;;5123841;28;20224;-66
2023/04/26 06:33:55;;;;;;;8.98;3.70;;;6.10;99.90;;;;;;5118693;28;20203;-66
2023/04/26 06:36:22;;;;;;;7.05;3.10;;;6.30;99.90;;;;;;5117427;28;20580;-66
2023/04/26 06:38:49;;;;;;;7.53;2.90;;;6.40;99.90;;;;;;5116463;28;20203;-67
2023/04/26 06:41:15;;;;;;;6.60;3.10;;;6.50;99.90;;;;;;5117236;28;20724;-66
2023/04/26 06:43:42;;;;;;;7.03;3.47;;;6.70;99.90;;;;;;5117378;28;20665;-67
2023/04/26 06:46:10;;;;;;;5.10;2.65;;;6.80;99.00;;;;;;5116496;28;20200;-66
2023/04/26 06:48:37;;;;;;;7.72;2.78;;;6.80;98.10;;;;;;5116116;28;20204;-67
2023/04/26 06:51:07;;;;;;;6.43;2.85;;;6.60;97.80;;;;;;5116530;28;20215;-65
2023/04/26 06:53:34;;;;;;;4.50;2.70;;;6.60;98.40;;;;;;5116888;28;20206;-65
2023/04/26 06:56:01;;;;;;;8.57;3.25;;;6.60;98.40;;;;;;5117411;28;20696;-67
2023/04/26 06:58:27;;;;;;;7.05;2.80;;;6.60;98.30;;;;;;5117652;28;20195;-66
2023/04/26 07:00:54;;;;;;;7.90;3.08;;;6.70;97.90;;;;;;5118089;28;20206;-66
2023/04/26 07:03:22;;;;;;;4.15;2.58;;;6.90;97.20;;;;;;5118981;28;20629;-67
2023/04/26 07:05:49;;;;;;;3.15;2.35;;;7.10;96.20;;;;;;5119918;28;20214;-66
2023/04/26 07:08:16;;;;;;;7.70;3.00;;;7.30;95.20;;;;;;5118527;28;20203;-66
2023/04/26 07:10:42;;;;;;;5.25;2.50;;;7.30;94.80;;;;;;5115079;28;20219;-66
2023/04/26 07:13:09;;;;;;;3.75;2.47;;;7.30;93.70;;;;;;5115479;28;20219;-67
2023/04/26 07:15:36;;;;;;;11.35;2.70;;;7.30;93.30;;;;;;5114795;28;20209;-65
2023/04/26 07:18:03;;;;;;;5.43;3.20;;;7.20;93.40;;;;;;5114581;28;20206;-66
2023/04/26 07:20:31;;;;;;;7.25;3.35;;;7.20;93.70;;;;;;5114396;28;20198;-67
2023/04/26 07:22:58;;;;;;;5.53;3.15;;;7.20;93.20;;;;;;5114056;28;20230;-66
2023/04/26 07:25:24;;;;;;;6.00;3.20;;;7.10;93.20;;;;;;5114179;28;20215;-67
2023/04/26 07:27:51;;;;;;;3.53;2.60;;;7.20;93.60;;;;;;5113578;28;20680;-65
2023/04/26 07:30:18;;;;;;;6.03;2.95;;;7.10;92.70;;;;;;5113907;28;20276;-66
2023/04/26 07:32:44;;;;;;;11.57;3.00;;;7.20;92.30;;;;;;5114186;28;20624;-67
2023/04/26 07:35:14;;;;;;;7.25;3.40;;;7.20;92.10;;;;;;5114118;28;20204;-66
2023/04/26 07:37:43;;;;;;;6.93;2.55;;;7.40;92.20;;;;;;5115968;28;20204;-66
2023/04/26 07:40:12;;;;;;;4.60;2.22;;;7.60;91.70;;;;;;5114600;28;20200;-67
2023/04/26 07:42:39;;;;;;;7.45;2.63;;;7.80;90.70;;;;;;5113785;28;20231;-66
2023/04/26 07:45:07;;;;;;;9.45;2.75;;;7.90;88.20;;;;;;5113759;28;20211;-66
2023/04/26 07:47:34;;;;;;;3.40;2.22;;;7.90;87.40;;;;;;5114009;28;20261;-66
2023/04/26 07:50:00;;;;;;;5.43;2.88;;;7.90;86.40;;;;;;5114043;28;20556;-67
2023/04/26 07:52:27;;;;;;;13.70;3.90;;;7.80;86.50;;;;;;5114227;28;20231;-66
2023/04/26 07:54:55;;;;;;;7.32;2.65;;;7.80;85.40;;;;;;5113941;28;20203;-66
2023/04/26 07:57:22;;;;;;;6.85;2.70;;;7.90;85.90;;;;;;5114192;28;20195;-66
2023/04/26 07:59:49;;;;;;;7.88;2.50;;;8.00;85.70;;;;;;5113989;28;20203;-67
2023/04/26 08:02:16;;;;;;;6.70;3.20;;;8.20;84.70;;;;;;5113522;28;20219;-66
2023/04/26 08:04:51;;;;;;;5.60;2.70;;;8.40;84.30;;;;;;5113780;28;20199;-66
2023/04/26 08:07:18;;;;;;;4.82;2.38;;;8.60;82.90;;;;;;5113661;28;20183;-67
2023/04/26 08:09:44;;;;;;;5.13;2.30;;;8.70;81.20;;;;;;5113487;28;20208;-66
2023/04/26 08:12:13;;;;;;;4.70;2.85;;;8.60;78.10;;;;;;5113112;28;20577;-67
2023/04/26 08:14:39;;;;;;;6.78;2.65;;;8.60;77.20;;;;;;5113399;28;20203;-67
2023/04/26 08:17:08;;;;;;;4.38;2.17;;;8.70;75.60;;;;;;5113508;28;20206;-66
2023/04/26 08:19:35;;;;;;;3.20;2.40;;;8.90;74.70;;;;;;5113482;28;20199;-67
2023/04/26 08:22:02;;;;;;;5.35;2.58;;;9.10;73.50;;;;;;5113451;28;20246;-67
2023/04/26 08:24:29;;;;;;;6.53;2.15;;;9.20;71.20;;;;;;5113071;28;20587;-64
2023/04/26 08:26:57;;;;;;;8.18;2.67;;;9.10;69.50;;;;;;5113532;28;20211;-66
2023/04/26 08:29:26;;;;;;;3.88;2.40;;;9.00;69.80;;;;;;5113339;28;20199;-67
2023/04/26 08:31:53;;;;;;;5.97;2.47;;;9.00;69.00;;;;;;5113081;28;20700;-68
2023/04/26 08:34:20;;;;;;;6.50;2.63;;;9.10;68.50;;;;;;5113316;28;20204;-66
2023/04/26 08:36:47;;;;;;;4.10;2.37;;;9.10;67.50;;;;;;5113166;28;20200;-66
2023/04/26 08:39:13;;;;;;;5.60;2.22;;;9.20;66.80;;;;;;5113137;28;20445;-66
2023/04/26 08:41:43;;;;;;;5.37;2.90;;;9.40;65.00;;;;;;5113063;28;20709;-67
2023/04/26 08:44:10;;;;;;;2.88;2.30;;;9.50;62.60;;;;;;5113384;28;20532;-66
2023/04/26 08:46:44;;;;;;;4.53;2.47;;;9.40;62.40;;;;;;5112973;28;20701;-68
2023/04/26 08:49:21;;;;;;;3.42;2.20;;;9.40;62.70;;;;;;5113165;28;20562;-66
2023/04/26 08:51:50;;;;;;;3.85;2.05;;;9.30;61.40;;;;;;5113549;28;20219;-67
2023/04/26 08:54:19;;;;;;;6.05;2.10;;;9.00;61.40;;;;;;5113675;28;20206;-66
2023/04/26 08:56:50;;;;;;;5.30;3.22;;;8.90;61.50;;;;;;5118063;28;20195;-67
2023/04/26 08:59:18;;;;;;;2.60;2.25;;;8.90;62.00;;;;;;5121957;28;20622;-66
2023/04/26 09:01:47;;;;;;;4.88;1.85;;;8.90;61.40;;;;;;5117447;28;20212;-67
2023/04/26 09:04:14;;;;;;;4.95;2.17;;;9.00;61.50;;;;;;5117221;28;20287;-67
2023/04/26 09:06:41;;;;;;;6.80;2.55;;;9.10;60.80;;;;;;5116754;28;20226;-67
2023/04/26 09:09:10;;;;;;;5.40;2.10;;;9.30;59.80;;;;;;5116589;28;20230;-66
2023/04/26 09:11:52;;;;;;;2.97;2.00;;;9.50;59.60;;;;;;5116797;28;20220;-66
2023/04/26 09:14:21;;;;;;;4.03;2.03;;;9.80;58.10;;;;;;5114811;28;20204;-68
2023/04/26 09:16:49;;;;;;;3.05;1.90;;;9.90;56.80;;;;;;5116926;28;20202;-68
2023/04/26 09:19:16;;;;;;;4.18;2.15;;;10.00;55.00;;;;;;5116405;28;20198;-67
2023/04/26 09:21:44;;;;;;;5.77;2.07;;;9.90;55.40;;;;;;5116753;28;20212;-67
2023/04/26 09:24:11;;;;;;;4.23;2.00;;;10.00;54.60;;;;;;5117149;28;20446;-68
2023/04/26 09:26:39;;;;;;;6.00;2.47;;;10.10;54.20;;;;;;5116613;28;20441;-67
2023/04/26 09:29:17;;;;;;;3.60;1.90;;;10.10;53.70;;;;;;5116600;28;20657;-67
2023/04/26 09:31:46;;;;;;;1.93;1.50;;;10.00;53.60;;;;;;5116500;28;20484;-68
2023/04/26 09:34:15;;;;;;;5.40;1.50;;;9.90;54.10;;;;;;5118505;28;20529;-65
2023/04/26 09:36:50;;;;;;;4.50;2.47;;;10.00;53.60;;;;;;5116790;28;20437;-65
2023/04/26 09:39:31;;;;;;;2.67;2.10;;;10.30;52.90;;;;;;5116321;28;20479;-66
2023/04/26 09:41:58;;;;;;;2.87;1.90;;;10.50;51.70;;;;;;5116552;28;20457;-65
2023/04/26 09:44:25;;;;;;;1.70;1.50;;;10.80;51.10;;;;;;5116097;28;20473;-65
2023/04/26 09:47:00;;;;;;;3.60;1.67;;;11.10;49.20;;;;;;5116289;28;20441;-66
2023/04/26 09:49:29;;;;;;;3.00;1.80;;;11.40;48.40;;;;;;5116349;28;20448;-65
2023/04/26 09:52:04;;;;;;;3.67;2.17;;;11.70;47.80;;;;;;5116175;28;20488;-65
2023/04/26 09:54:42;;;;;;;3.27;1.97;;;11.60;47.50;;;;;;5116289;27;20452;-64
2023/04/26 09:57:09;;;;;;;3.23;2.17;;;11.30;47.80;;;;;;5116595;28;20821;-66
2023/04/26 09:59:44;;;;;;;6.33;2.30;;;11.10;48.30;;;;;;5116452;28;20495;-65
2023/04/26 10:02:15;;;;;;;6.60;1.90;;;11.00;48.60;;;;;;5116001;28;20492;-65
2023/04/26 10:04:46;;;;;;;4.10;1.90;;;11.10;48.20;;;;;;5116885;28;20529;-67
2023/04/26 10:07:14;;;;;;;4.83;2.53;;;11.10;47.50;;;;;;5115602;28;20436;-65
2023/04/26 10:09:41;;;;;;;4.90;2.37;;;10.90;47.40;;;;;;5115257;28;20465;-65
2023/04/26 10:12:11;;;;;;;5.20;2.10;;;10.80;47.60;;;;;;5115520;28;20485;-65
2023/04/26 10:14:38;;;;;;;3.07;1.93;;;10.70;48.00;;;;;;5115632;28;20453;-65
2023/04/26 10:17:05;;;;;;;5.87;2.33;;;10.50;48.60;;;;;;5115696;28;20445;-65
2023/04/26 10:19:33;;;;;;;3.07;1.60;;;10.40;49.30;;;;;;5115979;28;20448;-65
2023/04/26 10:22:05;;;;;;;4.13;2.10;;;10.50;49.60;;;;;;5115612;28;20458;-64
2023/04/26 10:24:33;;;;;;;5.17;2.10;;;10.50;48.70;;;;;;5115518;28;20429;-66
2023/04/26 10:27:03;;;;;;;2.77;1.60;;;10.50;47.90;;;;;;5115891;28;20442;-66
2023/04/26 10:30:14;;;;;;;3.77;1.90;;;10.60;47.60;;;;;;5115723;28;20441;-65
2023/04/26 10:33:14;;;;;;;3.30;1.80;;;10.70;47.00;;;;;;5053531;28;20488;-67
2023/04/26 10:36:17;;;;;;;4.60;1.97;;;10.90;47.20;;;;;;5118123;28;20450;-65
2023/04/26 10:39:20;;;;;;;3.93;2.13;;;11.00;47.60;;;;;;5111639;28;20475;-65
2023/04/26 10:41:47;;;;;;;6.40;2.50;;;10.80;48.50;;;;;;5118344;28;20544;-64
2023/04/26 10:44:37;;;;;;;6.10;2.60;;;10.50;49.30;;;;;;5118948;28;20449;-65
2023/04/26 10:47:06;;;;;;;3.27;2.00;;;10.50;50.00;;;;;;5118387;28;20425;-65
2023/04/26 10:49:45;;;;;;;8.50;2.60;;;10.60;49.90;;;;;;5117223;28;20857;-65
2023/04/26 10:52:14;;;;;;;5.03;2.22;;;10.50;49.80;;;;;;5114760;28;20442;-65
2023/04/26 10:55:05;;;;;;;3.77;2.77;;;10.50;50.00;;;;;;5115074;28;20234;-64
2023/04/26 10:57:48;;;;;;;5.93;2.00;;;10.50;49.30;;;;;;5114560;28;20833;-65
2023/04/26 11:00:19;;;;;;;2.17;1.77;;;10.50;48.80;;;;;;5114993;28;20490;-67
2023/04/26 11:02:52;;;;;;;5.13;2.03;;;10.70;48.30;;;;;;5114616;28;20476;-65
2023/04/26 11:05:54;;;;;;;3.73;1.47;;;10.90;48.30;;;;;;5120032;28;20418;-65
2023/04/26 11:08:24;;;;;;;2.80;1.70;;;11.10;45.90;;;;;;5114266;28;20436;-65
2023/04/26 11:10:58;;;;;;;2.80;1.70;;;11.10;45.00;;;;;;5114620;28;20457;-65
2023/04/26 11:13:25;;;;;;;3.80;1.70;;;11.10;44.80;;;;;;5114130;28;20475;-66
2023/04/26 11:16:02;;;;;;;2.23;1.70;;;11.10;44.60;;;;;;5114609;28;20815;-66
2023/04/26 11:18:31;;;;;;;4.40;1.87;;;11.20;44.40;;;;;;5114872;28;20433;-65
2023/04/26 11:20:58;;;;;;;4.10;1.80;;;11.30;43.80;;;;;;5113031;28;20434;-65
2023/04/26 11:23:27;;;;;;;3.00;2.20;;;11.40;43.60;;;;;;5114538;28;20203;-66
2023/04/26 11:25:57;;;;;;;3.10;1.83;;;11.30;43.80;;;;;;5118311;28;20448;-65
2023/04/26 11:28:27;;;;;;;3.90;1.87;;;11.30;44.00;;;;;;5118037;28;20438;-66
2023/04/26 11:30:54;;;;;;;3.13;1.60;;;11.50;44.00;;;;;;5115475;28;20801;-66
2023/04/26 11:33:22;;;;;;;4.60;2.30;;;11.60;43.50;;;;;;5114614;28;21025;-64
2023/04/26 11:35:49;;;;;;;3.10;1.87;;;11.80;43.20;;;;;;5114522;28;20814;-65
2023/04/26 11:38:17;;;;;;;4.23;1.90;;;11.80;42.70;;;;;;5114272;28;20445;-62
2023/04/26 11:40:44;;;;;;;5.20;2.23;;;11.80;42.60;;;;;;5116929;28;20438;-64
2023/04/26 11:43:14;;;;;;;3.70;2.40;;;11.70;42.70;;;;;;5115603;28;20552;-64
2023/04/26 11:45:41;;;;;;;4.10;2.50;;;11.80;43.00;;;;;;5114713;27;20591;-63
2023/04/26 11:48:10;;;;;;;3.00;2.10;;;11.80;43.10;;;;;;5116174;28;20465;-64
2023/04/26 11:50:38;;;;;;;4.77;2.33;;;12.20;43.60;;;;;;5115985;28;20460;-65
2023/04/26 11:53:08;;;;;;;4.83;2.07;;;12.90;42.60;;;;;;5115175;28;20481;-65
2023/04/26 11:55:35;;;;;;;5.30;2.10;;;13.50;41.50;;;;;;5121994;28;20445;-65
2023/04/26 11:58:09;;;;;;;3.43;1.90;;;14.20;40.00;;;;;;5114294;28;20536;-67
2023/04/26 12:00:38;;;;;;;4.90;1.73;;;14.70;37.10;;;;;;5115266;28;20422;-66
2023/04/26 12:03:09;;;;;;;3.30;2.13;;;14.50;36.70;;;;;;5118607;28;20927;-65
2023/04/26 12:05:36;;;;;;;4.40;2.13;;;14.50;36.80;;;;;;5117604;28;20437;-65
2023/04/26 12:08:04;;;;;;;2.20;1.90;;;14.50;36.50;;;;;;5116528;28;20528;-66
2023/04/26 12:10:35;;;;;;;3.87;2.30;;;13.90;36.80;;;;;;5115533;28;20453;-63
2023/04/26 12:13:02;;;;;;;6.03;2.67;;;13.00;37.90;;;;;;5115347;28;20504;-64
2023/04/26 12:15:31;;;;;;;3.80;2.10;;;12.50;39.30;;;;;;5117217;28;20445;-65
2023/04/26 12:18:01;;;;;;;3.10;1.93;;;12.40;40.00;;;;;;5117745;28;20433;-66
2023/04/26 12:20:33;;;;;;;3.77;2.00;;;12.30;40.00;;;;;;5116419;28;20446;-63
2023/04/26 12:23:04;;;;;;;2.07;1.90;;;12.10;40.40;;;;;;5138045;22;20498;-61
2023/04/26 12:25:32;;;;;;;2.87;2.37;;;12.00;40.50;;;;;;5094095;28;20426;-61
2023/04/26 12:28:00;;;;;;;3.73;2.60;;;12.00;40.10;;;;;;5094831;28;20450;-59
2023/04/26 12:30:28;;;;;;;2.50;2.30;;;12.00;39.80;;;;;;5094185;28;20442;-60
2023/04/26 12:32:55;;;;;;;2.93;2.67;;;12.00;39.80;;;;;;5107891;28;20492;-61
2023/04/26 12:35:25;;;;;;;3.30;2.27;;;11.90;39.90;;;;;;5118353;28;20445;-61
2023/04/26 12:37:52;;;;;;;2.80;1.97;;;11.60;40.30;;;;;;5118762;28;20449;-60
2023/04/26 12:40:19;;;;;;;4.67;2.20;;;11.50;40.80;;;;;;5119358;28;20454;-61
2023/04/26 12:42:48;;;;;;;5.63;2.90;;;11.40;41.20;;;;;;5118288;28;20777;-59
2023/04/26 12:45:15;;;;;;;2.20;2.00;;;11.30;41.70;;;;;;5117911;28;20445;-62
2023/04/26 12:47:42;;;;;;;2.50;2.03;;;11.20;42.10;;;;;;5118572;28;20441;-61
2023/04/26 12:50:11;;;;;;;2.83;2.20;;;11.10;42.50;;;;;;5118304;28;20915;-60
2023/04/26 12:52:39;;;;;;;3.73;2.50;;;11.00;42.80;;;;;;5117951;28;20572;-61
2023/04/26 12:55:08;;;;;;;4.47;2.37;;;10.90;43.10;;;;;;5117785;28;20452;-60
2023/04/26 12:57:35;;;;;;;4.13;2.33;;;10.90;43.20;;;;;;5118376;28;20483;-61
2023/04/26 13:00:03;;;;;;;3.10;2.57;;;11.00;43.10;;;;;;5118093;28;20445;-60
2023/04/26 13:02:30;;;;;;;4.23;1.90;;;11.00;43.00;;;;;;5117765;28;20461;-60